Pagrindinis puslapis
METAR-TAF:

METAR-TAF

Oro uostai :

Puerto Maldonado, Peru

platuma: 12-38S, ilguma: 069-12W, Aukštis: 265 m

Dabartinis oras

Ataskaita buvo paskelbta 10 minutes, ne 15:00 UTC
Vėjas 2 kt nuo kintamojo kryptimis
Temperatūra 30°C
Drėgmė 75%
Slėgis 1014 hPa
Matomumas 10 km arba daugiau
Mažai debesys ne aukštis 2000 ft

METAR: SPTU 251500Z VRB02KT 9999 FEW020 30/25 Q1014 RMK BIRD HAZARD RWY 01/19 PP000

Laikas: 10:10 (15:10 UTC)

Prognozė

Ataskaita buvo paskelbta 4 valandos ir 10 minutes, ne 11:00 UTC
Prognozė galioja nuo 25 metu 12 UTC su 26 metu 12 UTC
Vėjas 6 kt iš Šiaurės Vakarų
Matomumas 10 km arba daugiau
Išsisklaidę debesys ne aukštis 2000 ft
Laikinai
nuo 25 metu 19 UTC su 25 metu 21 UTC
Mažai debesys ne aukštis 2000 ft, aukštai iškilę kamuoliniai debesys.

TAF: SPTU 251100Z 2512/2612 31006KT 9999 SCT020 TX34/2519Z TN24/2611Z TEMPO 2519/2521 FEW020TCU

Orai ataskaitas ir orų prognozės (METAR, TAF).

turimą stotys yra geltonos ir raudonos taškus žemėlapyje.

Perkelti pele per norėdami pamatyti stoties vardą.

Tada spustelėkite, norėdami matyti oro stebėjimo ir prognozės.

Norėdami pakeisti žemėlapį: spustelėkite ant žalios mygtukų su juodo kryžiaus žemyn,; žalią mygtuką su brūkšneliu, jei norite nutolinti; arba žalių rodyklių gretimoms žemėlapius.


METAR-TAF: